Time;durP1;ratioP1;P1;durP2;ratioP2;P2;SDS_P1;SDS_P2;PMS_P1;PMS_P2;Temp;Humidity;BMP_temperature;BMP_pressure;BME280_temperature;BME280_humidity;BME280_pressure;Samples;Min_cycle;Max_cycle;Signal;HPM_P1;HPM_P2
2024/03/24 00:00:26;;;;;;;5.95;1.27;;;7.20;66.30;;;2.59;100.00;95026.66;4956132;28;20376;-48
2024/03/24 00:02:52;;;;;;;7.55;1.25;;;7.20;66.50;;;2.68;100.00;95022.66;4943132;28;20056;-48
2024/03/24 00:05:18;;;;;;;3.38;1.15;;;7.20;66.70;;;2.73;100.00;95020.16;4960103;28;20041;-49
2024/03/24 00:07:44;;;;;;;8.45;1.50;;;7.30;66.70;;;2.83;100.00;95010.91;4961147;28;20069;-49
2024/03/24 00:10:09;;;;;;;5.05;1.15;;;7.30;66.70;;;2.80;100.00;95009.53;4958450;28;20030;-49
2024/03/24 00:12:35;;;;;;;5.20;1.13;;;7.30;66.70;;;2.89;100.00;95012.63;4962580;28;20059;-48
2024/03/24 00:15:01;;;;;;;3.30;1.10;;;7.40;66.60;;;2.89;100.00;95010.78;4954943;28;20074;-48
2024/03/24 00:17:27;;;;;;;2.78;1.05;;;7.40;66.40;;;2.92;100.00;95004.25;4961167;28;20384;-48
2024/03/24 00:19:52;;;;;;;5.50;1.40;;;7.40;66.30;;;2.98;100.00;94998.09;4962506;28;20022;-49
2024/03/24 00:22:20;;;;;;;3.00;1.52;;;7.50;66.30;;;2.97;100.00;94983.31;4955108;28;20134;-53
2024/03/24 00:24:46;;;;;;;4.05;1.20;;;7.50;66.10;;;2.97;100.00;94989.34;4958670;28;20108;-49
2024/03/24 00:27:14;;;;;;;6.93;1.42;;;7.50;66.00;;;3.00;100.00;94985.47;4946657;28;20186;-52
2024/03/24 00:29:40;;;;;;;4.25;1.13;;;7.50;65.90;;;3.01;100.00;94980.00;4957676;28;20440;-50
2024/03/24 00:32:07;;;;;;;4.97;1.13;;;7.60;65.90;;;2.97;100.00;94981.47;4961860;28;20097;-52
2024/03/24 00:34:33;;;;;;;8.15;1.45;;;7.60;65.90;;;2.92;100.00;94977.94;4949446;28;20473;-50
2024/03/24 00:36:59;;;;;;;3.25;1.08;;;7.60;66.00;;;2.96;100.00;94984.34;4953115;28;20054;-51
2024/03/24 00:39:24;;;;;;;5.82;1.10;;;7.50;66.00;;;2.98;100.00;94984.91;4949338;28;20033;-52
2024/03/24 00:41:50;;;;;;;8.02;1.00;;;7.50;66.10;;;2.96;100.00;94974.63;4957128;28;20033;-52
2024/03/24 00:44:16;;;;;;;6.13;1.25;;;7.50;66.00;;;2.93;100.00;94967.19;4961273;28;20029;-49
2024/03/24 00:46:41;;;;;;;4.78;1.10;;;7.50;65.90;;;2.90;100.00;94969.47;4961267;28;20039;-50
2024/03/24 00:49:07;;;;;;;5.68;1.10;;;7.50;66.00;;;2.88;100.00;94961.81;4956284;28;20030;-55
2024/03/24 00:51:33;;;;;;;2.35;1.10;;;7.40;65.90;;;2.88;100.00;94955.75;4961091;28;20026;-52
2024/03/24 00:53:59;;;;;;;6.25;1.50;;;7.40;66.00;;;2.92;100.00;94956.91;4960589;28;20022;-49
2024/03/24 00:56:25;;;;;;;6.43;1.17;;;7.40;66.10;;;2.92;100.00;94956.91;4959569;28;20033;-52
2024/03/24 00:58:50;;;;;;;7.80;1.20;;;7.40;66.20;;;2.98;100.00;94945.47;4964150;28;20033;-48
2024/03/24 01:01:16;;;;;;;8.18;1.60;;;7.40;66.10;;;2.94;100.00;94950.34;4944402;28;20104;-48
2024/03/24 01:03:44;;;;;;;3.13;1.10;;;7.40;66.20;;;2.88;100.00;94945.22;4947796;28;20023;-48
2024/03/24 01:06:09;;;;;;;3.97;1.10;;;7.30;66.30;;;2.89;100.00;94942.38;4927907;28;20117;-48
2024/03/24 01:08:35;;;;;;;6.80;1.10;;;7.30;66.30;;;2.89;100.00;94942.38;4945610;28;20157;-49
2024/03/24 01:11:07;;;;;;;7.05;1.48;;;7.40;66.40;;;2.85;100.00;94930.72;4947810;28;20054;-50
2024/03/24 01:13:33;;;;;;;5.95;1.30;;;7.30;66.40;;;2.79;100.00;94934.28;4945010;28;20045;-48
2024/03/24 01:15:58;;;;;;;5.90;1.50;;;7.30;66.70;;;2.81;100.00;94928.78;4940765;28;20034;-49
2024/03/24 01:18:24;;;;;;;9.32;1.42;;;7.30;66.70;;;2.80;100.00;94930.59;4951638;28;20132;-50
2024/03/24 01:20:50;;;;;;;9.15;1.38;;;7.30;66.70;;;2.71;100.00;94926.72;4942490;28;20038;-54
2024/03/24 01:23:16;;;;;;;4.63;1.20;;;7.20;66.90;;;2.67;100.00;94923.78;4945394;28;20023;-54
2024/03/24 01:25:42;;;;;;;10.05;1.08;;;7.20;67.10;;;2.66;100.00;94924.78;4942705;28;20026;-48
2024/03/24 01:28:07;;;;;;;7.40;2.25;;;7.20;67.00;;;2.64;100.00;94918.97;4946442;28;20033;-54
2024/03/24 01:30:33;;;;;;;4.10;1.00;;;7.20;67.20;;;2.66;100.00;94913.47;4940933;28;20023;-52
2024/03/24 01:32:59;;;;;;;8.00;1.70;;;7.20;67.10;;;2.68;100.00;94906.16;4944506;28;20058;-52
2024/03/24 01:35:24;;;;;;;6.43;1.30;;;7.20;67.20;;;2.65;100.00;94914.50;4941665;28;20034;-48
2024/03/24 01:37:50;;;;;;;4.38;1.20;;;7.20;67.30;;;2.68;100.00;94906.94;4941290;28;20389;-49
2024/03/24 01:40:16;;;;;;;3.47;1.20;;;7.20;67.50;;;2.65;100.00;94909.25;4944018;28;20112;-55
2024/03/24 01:42:42;;;;;;;4.95;1.30;;;7.20;67.50;;;2.63;100.00;94909.47;4944551;28;20022;-51
2024/03/24 01:45:08;;;;;;;4.25;1.05;;;7.20;67.50;;;2.65;100.00;94904.00;4939120;28;20105;-54
2024/03/24 01:47:35;;;;;;;8.98;1.67;;;7.20;67.50;;;2.62;100.00;94907.88;4943608;28;20062;-50
2024/03/24 01:50:04;;;;;;;10.45;1.38;;;7.20;67.50;;;2.66;100.00;94895.06;4929239;28;20031;-48
2024/03/24 01:52:30;;;;;;;5.93;1.65;;;7.20;67.50;;;2.64;100.00;94905.03;4942764;28;20054;-50
2024/03/24 01:54:56;;;;;;;4.32;1.40;;;7.20;67.70;;;2.53;100.00;94886.38;4941505;28;20022;-48
2024/03/24 01:57:23;;;;;;;5.78;1.33;;;7.10;67.70;;;2.46;100.00;94890.19;4925453;28;20057;-52
2024/03/24 01:59:51;;;;;;;8.27;1.00;;;7.10;68.00;;;2.46;100.00;94890.97;4949100;28;20054;-51
2024/03/24 02:02:17;;;;;;;6.50;1.73;;;7.10;67.90;;;2.42;100.00;94889.84;4949132;28;20027;-47
2024/03/24 02:04:49;;;;;;;5.90;1.38;;;7.00;67.90;;;2.39;100.00;94894.78;4947161;28;20554;-49
2024/03/24 02:07:15;;;;;;;;;;;7.00;68.10;;;2.33;100.00;94885.97;4947626;28;20533;-47
2024/03/24 02:09:42;;;;;;;8.35;1.63;;;7.00;67.80;;;2.25;100.00;94881.84;4945060;28;19913;-49
2024/03/24 02:12:08;;;;;;;5.10;1.35;;;6.90;68.10;;;2.22;100.00;94884.13;4924939;28;20027;-51
2024/03/24 02:14:34;;;;;;;2.53;1.10;;;6.90;68.20;;;2.17;100.00;94882.19;4948910;28;20406;-49
2024/03/24 02:17:01;;;;;;;4.68;1.38;;;6.80;68.10;;;2.08;100.00;94875.69;4947699;28;20018;-47
2024/03/24 02:19:27;;;;;;;2.53;1.00;;;6.80;68.10;;;2.01;100.00;94883.69;4945763;28;20381;-48
2024/03/24 02:21:53;;;;;;;5.70;1.20;;;6.70;68.00;;;1.91;100.00;94877.38;4946085;28;20030;-47
2024/03/24 02:24:19;;;;;;;4.55;1.40;;;6.70;68.90;;;1.84;100.00;94874.88;4943947;28;20034;-47
2024/03/24 02:26:45;;;;;;;7.85;1.50;;;6.60;68.10;;;1.86;100.00;94878.06;4945894;28;20035;-48
2024/03/24 02:29:13;;;;;;;8.80;1.63;;;6.60;68.30;;;1.85;100.00;94877.28;4950203;28;20489;-56
2024/03/24 02:31:41;;;;;;;2.22;1.05;;;6.50;68.30;;;1.79;100.00;94875.56;4944114;28;20037;-47
2024/03/24 02:34:07;;;;;;;4.18;1.27;;;6.50;68.40;;;1.77;100.00;94869.72;4947858;28;20015;-51
2024/03/24 02:36:33;;;;;;;3.78;1.63;;;6.50;68.50;;;1.74;100.00;94874.63;4942223;28;20027;-47
2024/03/24 02:38:59;;;;;;;3.88;1.45;;;6.50;68.50;;;1.73;100.00;94884.34;4936114;28;20026;-49
2024/03/24 02:41:24;;;;;;;4.72;1.30;;;6.40;68.60;;;1.66;100.00;94870.53;4950271;28;20113;-50
2024/03/24 02:43:51;;;;;;;6.18;1.40;;;6.40;68.60;;;1.67;100.00;94876.56;4946935;28;20115;-54
2024/03/24 02:46:17;;;;;;;6.93;1.20;;;6.40;69.30;;;1.49;100.00;94872.19;4944234;28;20494;-48
2024/03/24 02:48:42;;;;;;;6.72;1.55;;;6.30;68.50;;;1.49;100.00;94862.47;4945998;28;20023;-49
2024/03/24 02:51:08;;;;;;;5.63;1.35;;;6.20;68.40;;;1.48;100.00;94858.25;4946240;28;20026;-48
2024/03/24 02:53:35;;;;;;;13.75;1.77;;;6.20;68.40;;;1.45;100.00;94871.84;4946850;28;23126;-51
2024/03/24 02:56:01;;;;;;;5.80;1.30;;;6.20;68.40;;;1.39;100.00;94865.66;4947860;28;20389;-53
2024/03/24 02:58:26;;;;;;;7.40;1.80;;;6.10;68.30;;;1.37;100.00;94865.06;4943201;28;20037;-50
2024/03/24 03:00:52;;;;;;;7.82;1.65;;;6.10;68.40;;;1.37;100.00;94857.19;4944198;28;20026;-50
2024/03/24 03:03:18;;;;;;;4.85;1.25;;;6.10;68.40;;;1.38;100.00;94855.41;4943562;28;20030;-48
2024/03/24 03:05:46;;;;;;;5.13;1.40;;;6.10;68.40;;;1.33;100.00;94863.94;4945056;28;20018;-49
2024/03/24 03:08:11;;;;;;;6.10;1.50;;;6.00;68.30;;;1.33;100.00;94855.25;4947752;28;20033;-47
2024/03/24 03:10:39;;;;;;;3.92;1.35;;;6.00;69.10;;;1.30;100.00;94851.25;4941795;28;20482;-52
2024/03/24 03:13:04;;;;;;;6.93;1.48;;;6.00;68.30;;;1.27;100.00;94851.69;4943754;28;20497;-48
2024/03/24 03:15:31;;;;;;;7.32;1.50;;;6.00;68.30;;;1.29;100.00;94859.38;4979075;23;20141;-46
2024/03/24 03:17:57;;;;;;;7.50;1.65;;;6.00;68.40;;;1.28;100.00;94857.75;4970645;28;20049;-45
2024/03/24 03:20:24;;;;;;;8.30;2.10;;;6.00;68.40;;;1.23;100.00;94849.75;4972151;28;20021;-48
2024/03/24 03:22:50;;;;;;;8.85;1.70;;;5.90;68.40;;;1.28;100.00;94849.88;4970894;28;20121;-46
2024/03/24 03:25:16;;;;;;;7.70;1.73;;;6.00;68.50;;;1.28;100.00;94855.13;4954269;28;20499;-46
2024/03/24 03:27:44;;;;;;;6.22;1.80;;;6.00;68.60;;;1.30;100.00;94855.72;4950039;28;20058;-45
2024/03/24 03:30:10;;;;;;;6.80;1.90;;;6.00;68.60;;;1.32;100.00;94854.47;4950015;28;20385;-47
2024/03/24 03:32:37;;;;;;;9.77;2.03;;;6.00;68.60;;;1.34;100.00;94854.22;4948815;28;20061;-46
2024/03/24 03:35:04;;;;;;;9.68;1.85;;;6.00;68.70;;;1.34;100.00;94862.88;4949863;28;20037;-48
2024/03/24 03:37:30;;;;;;;6.72;2.05;;;6.00;68.70;;;1.37;100.00;94862.44;4948148;28;20050;-53
2024/03/24 03:39:56;;;;;;;8.40;1.60;;;6.10;68.80;;;1.33;100.00;94873.63;4948985;28;20026;-46
2024/03/24 03:42:22;;;;;;;5.07;1.65;;;6.10;68.80;;;1.25;100.00;94874.72;4951321;28;20026;-46
2024/03/24 03:44:49;;;;;;;6.88;1.55;;;6.00;68.50;;;1.21;100.00;94867.53;4947893;28;20033;-47
2024/03/24 03:47:17;;;;;;;3.75;1.60;;;6.00;68.30;;;1.16;100.00;94865.59;4949597;28;20459;-48
2024/03/24 03:49:50;;;;;;;6.80;1.98;;;6.00;68.30;;;1.09;100.00;94860.41;4944664;28;20123;-46
2024/03/24 03:52:32;;;;;;;;;;;5.90;68.10;;;1.08;100.00;94858.03;4949657;28;20030;-48
2024/03/24 03:55:00;;;;;;;8.50;2.05;;;5.90;67.90;;;1.09;100.00;94844.69;4950494;28;19917;-48
2024/03/24 03:57:27;;;;;;;4.72;1.75;;;5.80;68.00;;;1.05;100.00;94847.97;4949282;28;20106;-49
2024/03/24 03:59:54;;;;;;;5.88;1.70;;;5.80;68.00;;;1.03;100.00;94848.19;4950256;28;20023;-48
2024/03/24 04:02:21;;;;;;;5.07;1.90;;;5.80;68.10;;;1.06;100.00;94846.94;4947678;28;20034;-47
2024/03/24 04:04:47;;;;;;;8.23;2.35;;;5.80;68.10;;;1.07;100.00;94856.44;4947812;28;20035;-47
2024/03/24 04:07:13;;;;;;;4.70;2.00;;;5.80;68.20;;;1.05;100.00;94845.34;4950714;28;20033;-46
2024/03/24 04:09:38;;;;;;;4.82;2.10;;;5.80;68.30;;;1.10;100.00;94848.91;4947745;28;20029;-51
2024/03/24 04:12:06;;;;;;;6.32;1.67;;;5.90;68.50;;;1.15;100.00;94850.84;4949427;28;20052;-48
2024/03/24 04:14:31;;;;;;;9.70;2.15;;;5.90;68.60;;;1.19;100.00;94854.63;4949946;28;20429;-47
2024/03/24 04:16:57;;;;;;;9.32;2.08;;;5.90;68.60;;;1.20;100.00;94853.63;4951340;28;20034;-46
2024/03/24 04:19:23;;;;;;;15.05;2.40;;;5.90;68.60;;;1.20;100.00;94851.00;4951717;28;20485;-45
2024/03/24 04:21:49;;;;;;;6.93;2.22;;;6.00;68.70;;;1.26;100.00;94851.94;4949688;28;20033;-46
2024/03/24 04:24:15;;;;;;;4.88;2.55;;;6.00;68.70;;;1.27;100.00;94856.94;4944307;28;20081;-46
2024/03/24 04:26:40;;;;;;;6.75;2.40;;;6.00;68.70;;;1.27;100.00;94856.16;4948928;28;20030;-47
2024/03/24 04:29:06;;;;;;;7.95;2.20;;;6.00;68.70;;;1.28;100.00;94857.75;4951047;28;20026;-48
2024/03/24 04:31:32;;;;;;;8.63;2.25;;;6.00;68.60;;;1.29;100.00;94848.88;4948920;28;20559;-48
2024/03/24 04:33:58;;;;;;;8.70;2.70;;;6.10;68.70;;;1.32;100.00;94851.03;4950384;28;20026;-46
2024/03/24 04:36:23;;;;;;;3.83;2.42;;;6.00;68.60;;;1.30;100.00;94846.00;4951386;28;20026;-45
2024/03/24 04:38:49;;;;;;;37.05;4.13;;;6.10;68.70;;;1.31;100.00;94847.59;4951568;28;20019;-47
2024/03/24 04:41:15;;;;;;;8.18;2.58;;;6.10;68.60;;;1.34;100.00;94838.47;4950954;28;20069;-55
2024/03/24 04:43:41;;;;;;;4.70;2.60;;;6.10;68.60;;;1.33;100.00;94852.63;4949611;28;20019;-52
2024/03/24 04:46:07;;;;;;;14.82;3.42;;;6.10;68.60;;;1.32;100.00;94849.22;4951529;28;20042;-47
2024/03/24 04:48:33;;;;;;;7.82;3.10;;;6.10;68.60;;;1.31;100.00;94846.81;4951032;28;20026;-48
2024/03/24 04:50:59;;;;;;;10.90;2.97;;;6.10;68.60;;;1.28;100.00;94850.66;4950863;28;20027;-48
2024/03/24 04:53:26;;;;;;;8.55;2.53;;;6.10;68.60;;;1.30;100.00;94842.59;4950653;28;20076;-48
2024/03/24 04:55:52;;;;;;;6.30;2.03;;;6.10;68.70;;;1.32;100.00;94849.22;4950178;28;20018;-46
2024/03/24 04:58:19;;;;;;;6.65;2.33;;;6.20;68.80;;;1.33;100.00;94844.75;4951286;28;20034;-46
2024/03/24 05:00:45;;;;;;;9.20;2.35;;;6.10;68.80;;;1.34;100.00;94833.22;4950193;28;20023;-50
2024/03/24 05:03:11;;;;;;;7.00;2.00;;;6.20;68.90;;;1.36;100.00;94836.44;4951374;28;20026;-47
2024/03/24 05:05:38;;;;;;;4.68;1.90;;;6.20;68.90;;;1.38;100.00;94837.81;4950247;28;20023;-49
2024/03/24 05:08:05;;;;;;;6.32;2.40;;;6.20;69.10;;;1.46;100.00;94836.69;4951184;28;20065;-50
2024/03/24 05:10:32;;;;;;;6.97;2.33;;;6.20;69.10;;;1.49;100.00;94849.34;4951316;28;20031;-52
2024/03/24 05:12:58;;;;;;;4.55;2.60;;;6.20;69.10;;;1.52;100.00;94846.28;4950102;28;20027;-45
2024/03/24 05:15:24;;;;;;;5.78;2.15;;;6.30;69.20;;;1.51;100.00;94847.31;4951030;28;20378;-46
2024/03/24 05:17:50;;;;;;;4.28;1.80;;;6.30;69.20;;;1.45;100.00;94852.66;4949994;28;20074;-45
2024/03/24 05:20:16;;;;;;;5.38;1.70;;;6.30;69.10;;;1.32;100.00;94861.53;4951020;28;20033;-51
2024/03/24 05:22:41;;;;;;;6.13;1.33;;;6.20;68.80;;;1.25;100.00;94860.81;4948487;28;20085;-56
2024/03/24 05:25:08;;;;;;;4.38;1.50;;;6.10;68.60;;;1.08;100.00;94856.19;4947636;28;20478;-54
2024/03/24 05:27:34;;;;;;;3.45;1.40;;;6.00;68.40;;;1.02;100.00;94859.72;4950701;28;20034;-48
2024/03/24 05:30:00;;;;;;;28.02;1.73;;;6.00;68.40;;;0.86;100.00;94857.72;4950222;28;20088;-54
2024/03/24 05:32:26;;;;;;;17.83;1.90;;;5.90;68.30;;;0.77;100.00;94869.53;4950193;28;20093;-48
2024/03/24 05:34:51;;;;;;;7.57;1.77;;;5.80;68.20;;;0.73;100.00;94863.13;4951169;28;20109;-51
2024/03/24 05:37:17;;;;;;;6.07;1.60;;;5.70;68.10;;;0.65;100.00;94867.63;4951668;28;20065;-47
2024/03/24 05:39:46;;;;;;;3.70;1.20;;;5.60;68.10;;;0.62;100.00;94877.75;4950613;28;20105;-48
2024/03/24 05:42:12;;;;;;;2.80;1.35;;;5.50;68.30;;;0.61;100.00;94884.81;4950285;28;20029;-48
2024/03/24 05:44:38;;;;;;;5.32;1.50;;;5.50;68.40;;;0.59;100.00;94893.91;4951068;28;20019;-49
2024/03/24 05:47:04;;;;;;;6.00;1.60;;;5.50;69.30;;;0.53;100.00;94895.59;4950717;28;20081;-50
2024/03/24 05:49:30;;;;;;;7.28;2.10;;;5.50;68.60;;;0.46;100.00;94900.91;4949568;28;20456;-49
2024/03/24 05:51:57;;;;;;;4.43;2.15;;;5.40;68.50;;;0.44;100.00;94891.69;4950294;28;20031;-56
2024/03/24 05:54:24;;;;;;;2.85;1.95;;;5.40;68.60;;;0.39;100.00;94896.75;4951599;28;20022;-47
2024/03/24 05:56:50;;;;;;;10.05;2.22;;;5.30;68.60;;;0.33;100.00;94893.19;4950186;29;20027;-50
2024/03/24 05:59:17;;;;;;;3.95;2.20;;;5.30;68.70;;;0.30;100.00;94898.84;4950558;28;20460;-52
2024/03/24 06:01:43;;;;;;;3.33;1.98;;;5.30;68.90;;;0.33;100.00;94892.38;4950580;28;20035;-48
2024/03/24 06:04:09;;;;;;;7.40;2.30;;;5.20;68.90;;;0.35;100.00;94885.91;4950254;28;20077;-49
2024/03/24 06:06:35;;;;;;;5.13;1.83;;;5.20;69.00;;;0.37;100.00;94902.19;4949405;28;20485;-54
2024/03/24 06:09:00;;;;;;;3.05;1.38;;;5.30;69.20;;;0.37;100.00;94904.81;4948790;28;20482;-52
2024/03/24 06:11:26;;;;;;;2.55;0.93;;;5.30;69.50;;;0.44;100.00;94902.97;4950276;28;20493;-50
2024/03/24 06:13:52;;;;;;;5.88;1.20;;;5.30;69.60;;;0.52;100.00;94898.44;4950867;28;20463;-53
2024/03/24 06:16:17;;;;;;;1.10;0.85;;;5.40;69.80;;;0.57;100.00;94899.41;4965235;28;20018;-51
2024/03/24 06:18:43;;;;;;;3.05;0.80;;;5.50;69.80;;;0.65;100.00;94912.19;4949150;28;20371;-51
2024/03/24 06:21:09;;;;;;;0.68;0.60;;;5.60;69.90;;;0.69;100.00;94908.13;4949451;28;20027;-47
2024/03/24 06:23:35;;;;;;;3.53;0.75;;;5.70;70.10;;;0.78;100.00;94910.44;4945729;28;20508;-56
2024/03/24 06:26:01;;;;;;;1.13;0.50;;;5.80;70.20;;;0.85;100.00;94922.47;4947616;28;20425;-50
2024/03/24 06:28:27;;;;;;;0.68;0.60;;;5.80;70.10;;;0.84;100.00;94925.28;4945157;28;20066;-49
2024/03/24 06:30:55;;;;;;;2.03;0.65;;;5.90;70.30;;;0.90;100.00;94906.84;4946123;28;20540;-48
2024/03/24 06:33:21;;;;;;;0.88;0.55;;;6.00;70.30;;;0.97;100.00;94922.50;4949219;28;20102;-50
2024/03/24 06:35:47;;;;;;;3.42;0.70;;;6.10;70.30;;;1.00;100.00;94927.31;4945944;28;20027;-50
2024/03/24 06:38:13;;;;;;;1.88;0.70;;;6.10;70.20;;;1.02;100.00;94919.25;4948476;28;20073;-47
2024/03/24 06:40:38;;;;;;;1.58;0.80;;;6.20;70.00;;;1.07;100.00;94925.44;4943242;28;20037;-48
2024/03/24 06:43:06;;;;;;;1.23;0.80;;;6.30;69.90;;;1.14;100.00;94941.88;4950003;28;20030;-52
2024/03/24 06:45:36;;;;;;;1.77;0.90;;;6.40;69.80;;;1.25;100.00;94942.16;4953245;28;20033;-47
2024/03/24 06:48:04;;;;;;;4.00;1.00;;;6.50;69.80;;;1.31;100.00;94955.19;4951193;28;20081;-47
2024/03/24 06:50:31;;;;;;;8.93;0.95;;;6.60;69.70;;;1.34;100.00;94951.31;4947978;28;20109;-47
2024/03/24 06:52:58;;;;;;;2.63;0.77;;;6.70;69.60;;;1.44;100.00;94951.56;4950825;28;20034;-48
2024/03/24 06:55:26;;;;;;;4.20;0.80;;;6.80;69.40;;;1.59;100.00;94949.34;4949441;28;20034;-46
2024/03/24 06:57:53;;;;;;;2.22;0.75;;;6.90;69.30;;;1.69;100.00;94961.16;4949867;28;20113;-50
2024/03/24 07:00:20;;;;;;;4.93;1.02;;;6.90;69.30;;;1.65;100.00;94960.78;4952296;28;20409;-47
2024/03/24 07:02:47;;;;;;;5.43;1.13;;;7.00;69.30;;;1.68;100.00;94965.59;4950611;28;20461;-48
2024/03/24 07:05:15;;;;;;;2.88;1.10;;;6.90;69.30;;;1.71;100.00;94962.53;4952166;28;20121;-50
2024/03/24 07:07:41;;;;;;;3.55;1.30;;;7.00;69.30;;;1.73;100.00;94967.56;4944356;28;20368;-45
2024/03/24 07:10:08;;;;;;;3.08;1.00;;;7.00;69.20;;;1.75;100.00;94968.94;4948106;28;20125;-49
2024/03/24 07:12:35;;;;;;;5.20;1.00;;;7.00;69.20;;;1.80;100.00;94965.63;4951222;28;20027;-48
2024/03/24 07:15:03;;;;;;;4.18;1.00;;;7.10;69.10;;;1.86;100.00;94975.25;4950276;28;20521;-49
2024/03/24 07:17:29;;;;;;;6.20;1.00;;;7.10;69.00;;;2.00;100.00;94975.84;4949793;28;20092;-48
2024/03/24 07:19:55;;;;;;;2.15;0.90;;;7.30;69.10;;;2.09;100.00;94972.66;4951516;28;20034;-49
2024/03/24 07:22:21;;;;;;;2.65;0.82;;;7.40;69.10;;;2.12;100.00;94979.28;4947937;28;20448;-46
2024/03/24 07:24:47;;;;;;;3.88;0.90;;;7.50;68.90;;;2.41;100.00;94976.81;4948852;28;20026;-48
2024/03/24 07:27:13;;;;;;;5.95;1.10;;;7.70;68.90;;;2.76;100.00;94985.50;4949449;28;20121;-46
2024/03/24 07:29:42;;;;;;;4.85;1.10;;;8.10;68.90;;;3.23;100.00;94988.06;4951047;28;20478;-49
2024/03/24 07:32:08;;;;;;;2.90;0.93;;;8.70;69.00;;;3.59;100.00;94987.97;4946390;28;20113;-48
2024/03/24 07:34:40;;;;;;;1.23;0.80;;;9.20;68.80;;;3.65;100.00;94979.91;4951113;28;20022;-46
2024/03/24 07:37:05;;;;;;;1.88;0.70;;;9.50;68.60;;;3.42;100.00;94978.19;4945645;28;20385;-53
2024/03/24 07:39:31;;;;;;;4.68;1.10;;;9.40;67.50;;;3.48;100.00;94990.41;4950050;28;20030;-48
2024/03/24 07:41:57;;;;;;;3.75;1.15;;;9.30;67.10;;;3.50;100.00;94998.06;4950904;28;20026;-50
2024/03/24 07:44:23;;;;;;;3.92;0.80;;;9.30;66.90;;;3.55;100.00;94994.75;4949583;28;20025;-48
2024/03/24 07:46:49;;;;;;;2.45;0.60;;;9.20;67.60;;;3.54;100.00;94996.56;4947012;28;20046;-46
2024/03/24 07:49:14;;;;;;;1.75;0.70;;;9.20;66.80;;;3.51;100.00;95006.75;4949766;28;20105;-45
2024/03/24 07:51:40;;;;;;;2.03;0.73;;;9.20;66.60;;;3.48;100.00;95008.03;4948982;28;20054;-51
2024/03/24 07:54:07;;;;;;;2.55;0.70;;;9.20;66.50;;;3.56;100.00;95012.13;4949783;28;20030;-48
2024/03/24 07:56:34;;;;;;;2.20;0.80;;;9.30;66.40;;;3.50;100.00;95013.84;4948614;28;20035;-50
2024/03/24 07:59:01;;;;;;;6.22;0.90;;;9.40;66.20;;;3.36;100.00;95004.63;4947432;28;20026;-48
2024/03/24 08:01:27;;;;;;;3.28;0.70;;;9.30;65.70;;;3.21;98.84;94995.38;4950260;28;20097;-48
2024/03/24 08:03:53;;;;;;;4.85;0.77;;;9.20;65.00;;;3.29;100.00;95020.56;4950596;28;20018;-48
2024/03/24 08:06:18;;;;;;;4.85;0.90;;;9.10;64.70;;;3.43;100.00;95015.84;4944471;28;20046;-48
2024/03/24 08:08:44;;;;;;;2.15;0.70;;;9.10;64.90;;;3.50;100.00;95019.13;4950081;28;20054;-48
2024/03/24 08:11:10;;;;;;;2.75;1.00;;;9.20;64.90;;;3.59;98.12;95009.81;4947661;28;20027;-49
2024/03/24 08:13:36;;;;;;;2.00;0.70;;;9.40;64.90;;;3.75;98.80;95013.53;4947289;28;20464;-51
2024/03/24 08:16:03;;;;;;;2.80;0.75;;;9.50;64.50;;;3.88;98.98;95018.53;4950649;28;20034;-48
2024/03/24 08:18:28;;;;;;;2.83;0.75;;;9.70;64.50;;;3.98;99.57;95010.03;4949460;28;20545;-47
2024/03/24 08:20:55;;;;;;;2.70;0.70;;;9.80;64.00;;;3.86;98.29;95015.34;4949557;28;20121;-53
2024/03/24 08:23:21;;;;;;;1.42;0.70;;;9.90;63.60;;;4.05;98.46;95017.78;4947830;28;20386;-57
2024/03/24 08:25:47;;;;;;;2.13;0.63;;;10.10;63.40;;;4.21;96.72;95021.47;4946612;28;20031;-49
2024/03/24 08:28:14;;;;;;;2.30;0.60;;;10.20;63.10;;;4.08;95.46;95018.09;4951497;28;20543;-52
2024/03/24 08:30:40;;;;;;;1.58;0.50;;;10.20;62.40;;;4.12;94.71;95015.78;4948580;28;20027;-47
2024/03/24 08:33:08;;;;;;;2.50;0.60;;;10.30;62.10;;;4.27;96.19;95028.44;4950149;28;20049;-48
2024/03/24 08:35:35;;;;;;;4.07;0.77;;;10.30;61.90;;;4.31;95.19;95025.06;4946533;28;20023;-48
2024/03/24 08:38:01;;;;;;;3.05;1.08;;;10.50;61.90;;;4.58;95.65;95027.09;4950321;28;20047;-51
2024/03/24 08:40:27;;;;;;;1.10;0.50;;;10.70;61.90;;;4.72;89.58;95019.66;4949117;28;20061;-50
2024/03/24 08:42:52;;;;;;;3.10;0.65;;;10.90;61.40;;;4.88;84.99;95026.75;4950788;28;20109;-50
2024/03/24 08:45:18;;;;;;;1.77;0.73;;;11.40;59.90;;;5.18;83.09;95029.03;4948074;28;20030;-49
2024/03/24 08:47:44;;;;;;;2.08;0.73;;;11.80;59.10;;;5.46;80.86;95025.41;4949041;28;20042;-47
2024/03/24 08:50:10;;;;;;;3.85;0.93;;;12.30;58.40;;;6.17;80.37;95033.38;4946446;28;20420;-49
2024/03/24 08:52:36;;;;;;;2.05;0.65;;;12.80;58.40;;;6.13;74.76;95037.53;4948671;28;20045;-54
2024/03/24 08:55:03;;;;;;;1.98;0.77;;;13.10;57.60;;;5.70;74.66;95020.69;4949113;28;20381;-48
2024/03/24 08:57:28;;;;;;;4.05;0.82;;;13.20;56.00;;;5.55;75.32;95026.59;4949560;28;20026;-47
2024/03/24 08:59:56;;;;;;;3.88;1.00;;;13.00;55.30;;;5.70;77.77;95035.72;4948200;28;20030;-54
2024/03/24 09:02:22;;;;;;;2.53;0.70;;;12.90;55.60;;;5.61;77.02;95035.38;4948951;28;20030;-47
2024/03/24 09:04:53;;;;;;;1.52;0.77;;;12.90;55.50;;;5.54;76.70;95045.31;4948278;28;20050;-48
2024/03/24 09:07:21;;;;;;;2.08;0.80;;;12.80;54.90;;;5.52;77.40;95048.22;4949247;28;20034;-47
2024/03/24 09:09:48;;;;;;;2.30;0.90;;;12.80;54.80;;;5.26;76.37;95057.63;4947584;28;20026;-48
2024/03/24 09:12:14;;;;;;;1.42;0.77;;;12.80;54.40;;;4.99;75.42;95039.06;4947769;28;20065;-47
2024/03/24 09:14:40;;;;;;;3.85;0.90;;;12.70;53.60;;;5.40;77.36;95042.25;4948432;28;20045;-48
2024/03/24 09:17:06;;;;;;;4.60;1.30;;;12.80;53.40;;;5.78;75.26;95045.88;4950768;28;20031;-47
2024/03/24 09:19:32;;;;;;;3.53;0.90;;;13.10;53.30;;;6.48;75.06;95044.22;4945518;28;20023;-50
2024/03/24 09:21:58;;;;;;;2.78;0.77;;;13.60;53.60;;;6.77;73.98;95042.09;4948899;28;20034;-49
2024/03/24 09:24:23;;;;;;;3.70;1.00;;;13.90;53.20;;;7.07;72.26;95035.41;4947226;28;20027;-50
2024/03/24 09:26:51;;;;;;;3.88;0.90;;;14.20;52.90;;;7.35;70.79;95031.59;4948181;28;20038;-50
2024/03/24 09:29:17;;;;;;;1.98;0.90;;;14.60;52.60;;;7.58;69.30;95040.97;4950253;28;20509;-48
2024/03/24 09:31:43;;;;;;;2.42;0.90;;;15.10;51.80;;;8.01;68.01;95037.16;4947079;28;20477;-47
2024/03/24 09:34:09;;;;;;;1.75;0.80;;;15.50;51.60;;;8.38;67.53;95032.72;4948771;28;20460;-47
2024/03/24 09:36:34;;;;;;;4.07;1.10;;;16.00;50.80;;;8.84;61.82;95030.91;4948086;28;20106;-48
2024/03/24 09:39:00;;;;;;;5.47;1.17;;;16.60;50.10;;;9.16;64.42;95043.09;4948500;28;20474;-48
2024/03/24 09:41:28;;;;;;;2.80;0.80;;;17.00;49.50;;;8.75;66.46;95049.22;4948294;28;20378;-49
2024/03/24 09:43:55;;;;;;;3.55;0.75;;;16.90;49.00;;;8.13;68.32;95067.97;4947851;28;20031;-52
2024/03/24 09:46:21;;;;;;;3.97;0.90;;;16.60;48.60;;;7.91;68.59;95058.34;4947952;28;20035;-49
2024/03/24 09:48:50;;;;;;;1.67;0.80;;;16.10;48.80;;;7.86;70.11;95056.44;4947273;28;20029;-47
2024/03/24 09:51:19;;;;;;;2.25;0.80;;;15.90;48.80;;;8.35;68.38;95036.69;4962773;28;20457;-51
2024/03/24 09:53:45;;;;;;;2.22;0.80;;;16.30;49.10;;;8.04;65.98;95044.56;4960752;28;20034;-50
2024/03/24 09:56:13;;;;;;;1.80;0.80;;;16.30;48.40;;;8.37;67.09;95045.19;4947180;28;20413;-51
2024/03/24 09:58:44;;;;;;;3.50;1.25;;;16.60;48.70;;;8.54;63.27;95037.00;4931424;28;20042;-48
2024/03/24 10:01:11;;;;;;;2.45;1.15;;;17.20;47.10;;;9.24;62.97;95047.84;4946033;28;20046;-57
2024/03/24 10:03:40;;;;;;;1.83;1.00;;;17.70;46.60;;;9.81;62.97;95037.84;4946587;28;20057;-53
2024/03/24 10:06:09;;;;;;;2.20;1.00;;;18.20;46.40;;;9.82;58.09;95040.25;4945661;28;20034;-48
2024/03/24 10:08:35;;;;;;;2.42;1.20;;;18.70;45.40;;;9.61;58.07;95033.41;4947366;28;20054;-48
2024/03/24 10:11:27;;;;;;;2.58;1.05;;;18.80;44.00;;;9.75;61.24;95037.09;4947387;28;20592;-52
2024/03/24 10:13:56;;;;;;;2.03;0.90;;;18.60;43.80;;;9.75;60.43;95034.44;4946522;28;20045;-51
2024/03/24 10:16:23;;;;;;;1.92;0.85;;;18.40;44.40;;;9.68;58.54;95033.91;4948776;28;20031;-48
2024/03/24 10:18:50;;;;;;;2.70;0.90;;;18.10;44.30;;;9.13;56.66;95030.34;4950731;28;20030;-49
2024/03/24 10:21:19;;;;;;;1.38;0.77;;;17.70;43.70;;;8.57;58.67;95028.50;4951724;28;20109;-47